logo
Search for airport 
image banner adimage banner adimage banner ad
image banner ad

CCY4 - East Gore Eco Airpark

Located in , Canada

ICAO - CCY4, IATA -

Data provided by Airmate  

General information

Coordinates: N45°7'0" W63°42'0"
Elevation is 615 feet MSL.
Magnetic variation is -17.9039° East
View others Airports in Nova Scotia

Operational data

Special qualification required
Current time UTC:
Current local time:
Weather at : CYHZ - Stanfield Intl ( 30 km )
METAR: CYHZ 230500Z 34006KT 15SM SKC 00/M07 A3012 RMK SLP206
TAF: TAF CYHZ 230241Z 2303/2324 28008KT P6SM SKC BECMG 2304/2306 VRB03KT FM231200 14008KT P6SM SKC FM231500 17012KT P6SM FEW025 FM232300 15008KT P6SM FEW015 RMK NXT FCST BY 230600Z
View NOTAMs / SUP AIP / TFR affecting this airport [VIEW]
Communications frequencies: [VIEW]

Runways:

RWY identifierQFULength (ft)Width (ft)SurfaceLDA (ft)
17175060GRASS
35175060GRASS

Airport contact information

Address: Canada

Satellite view of CCY4